Time;durP1;ratioP1;P1;durP2;ratioP2;P2;SDS_P1;SDS_P2;PMS_P1;PMS_P2;Temp;Humidity;BMP_temperature;BMP_pressure;BME280_temperature;BME280_humidity;BME280_pressure;Samples;Min_cycle;Max_cycle;Signal;HPM_P1;HPM_P2
2023/04/19 00:00:38;;;;;;;10.75;7.53;;;;;;;11.55;72.81;98808.13;5093609;28;20052;-48
2023/04/19 00:03:08;;;;;;;11.50;7.72;;;;;;;11.54;73.41;98811.78;5094725;28;20063;-49
2023/04/19 00:05:34;;;;;;;11.30;7.40;;;;;;;11.47;73.34;98813.59;5110460;28;20027;-48
2023/04/19 00:08:00;;;;;;;9.70;7.97;;;;;;;11.34;73.90;98811.78;5094620;28;20039;-48
2023/04/19 00:10:26;;;;;;;15.70;8.02;;;;;;;11.27;73.77;98806.53;5110370;28;20024;-49
2023/04/19 00:12:51;;;;;;;13.50;8.07;;;;;;;11.28;74.02;98807.31;5110367;28;20579;-48
2023/04/19 00:15:17;;;;;;;12.68;8.07;;;;;;;11.26;74.03;98812.78;5110284;28;20051;-48
2023/04/19 00:17:43;;;;;;;18.98;16.90;;;;;;;11.16;73.64;98812.38;5094606;28;20024;-48
2023/04/19 00:20:10;;;;;;;27.83;25.10;;;;;;;11.06;74.30;98810.13;5093165;28;20118;-48
2023/04/19 00:22:36;;;;;;;18.95;15.50;;;;;;;10.97;74.78;98806.91;5094419;28;20028;-49
2023/04/19 00:25:01;;;;;;;19.13;10.07;;;;;;;10.94;74.87;98812.53;5094358;28;20012;-49
2023/04/19 00:27:27;;;;;;;10.52;8.55;;;;;;;10.97;74.74;98813.97;5093054;28;20050;-48
2023/04/19 00:29:53;;;;;;;11.18;9.23;;;;;;;10.89;74.69;98814.16;5093041;28;20034;-48
2023/04/19 00:32:18;;;;;;;12.77;7.45;;;;;;;10.85;74.84;98813.75;5109680;28;20135;-48
2023/04/19 00:34:44;;;;;;;15.15;8.00;;;;;;;10.78;74.45;98802.41;5094218;28;20020;-48
2023/04/19 00:37:10;;;;;;;14.60;8.40;;;;;;;10.63;74.74;98797.34;5109849;28;20390;-48
2023/04/19 00:39:36;;;;;;;10.55;7.35;;;;;;;10.50;75.09;98805.16;5092795;28;20043;-48
2023/04/19 00:42:02;;;;;;;9.43;6.78;;;;;;;10.39;75.38;98799.47;5092810;28;20055;-49
2023/04/19 00:44:27;;;;;;;9.63;8.38;;;;;;;10.34;76.01;98803.69;5109735;28;20052;-48
2023/04/19 00:46:55;;;;;;;8.90;8.00;;;;;;;10.31;76.71;98802.25;5093237;28;20073;-48
2023/04/19 00:49:22;;;;;;;11.38;8.23;;;;;;;10.30;77.03;98799.81;5094015;28;20028;-48
2023/04/19 00:51:49;;;;;;;12.00;8.38;;;;;;;10.41;76.72;98801.91;5109544;28;20120;-49
2023/04/19 00:54:17;;;;;;;13.20;9.27;;;;;;;10.50;76.58;98794.66;5092649;28;20016;-48
2023/04/19 00:56:44;;;;;;;16.50;7.97;;;;;;;10.54;76.33;98793.25;5109547;28;20028;-48
2023/04/19 00:59:11;;;;;;;9.77;7.72;;;;;;;10.50;76.11;98789.41;5092387;28;20035;-48
2023/04/19 01:01:37;;;;;;;10.32;7.90;;;;;;;10.48;76.23;98781.72;5093682;28;20031;-48
2023/04/19 01:04:05;;;;;;;13.35;8.43;;;;;;;10.61;75.84;98780.19;5109321;28;20038;-48
2023/04/19 01:06:31;;;;;;;11.07;8.80;;;;;;;10.67;75.81;98785.44;5109267;28;20032;-48
2023/04/19 01:08:57;;;;;;;10.73;8.43;;;;;;;10.70;75.70;98779.75;5109204;28;20497;-48
2023/04/19 01:11:23;;;;;;;12.52;9.02;;;;;;;10.68;75.19;98779.16;5093474;28;20036;-48
2023/04/19 01:13:49;;;;;;;11.02;9.07;;;;;;;10.58;75.44;98776.09;5093393;28;20507;-49
2023/04/19 01:16:15;;;;;;;9.95;8.55;;;;;;;10.57;75.65;98779.75;5093333;28;20025;-48
2023/04/19 01:18:41;;;;;;;16.05;12.90;;;;;;;10.59;75.42;98783.00;5108986;28;20042;-48
2023/04/19 01:21:07;;;;;;;18.13;12.15;;;;;;;10.59;75.35;98775.13;5075152;28;20096;-49
2023/04/19 01:23:34;;;;;;;14.88;11.18;;;;;;;10.53;75.61;98773.28;5091903;28;20081;-48
2023/04/19 01:26:01;;;;;;;12.20;9.68;;;;;;;10.41;75.21;98782.72;5091887;28;20120;-48
2023/04/19 01:28:27;;;;;;;11.68;8.50;;;;;;;10.34;75.39;98782.69;5075095;28;20034;-48
2023/04/19 01:30:53;;;;;;;11.23;8.60;;;;;;;10.42;75.39;98782.50;5091837;28;20032;-48
2023/04/19 01:33:22;;;;;;;22.10;11.30;;;;;;;10.55;75.21;98777.31;5108547;28;20131;-49
2023/04/19 01:35:48;;;;;;;17.45;12.07;;;;;;;10.62;74.24;98774.69;5091654;28;20027;-49
2023/04/19 01:38:15;;;;;;;15.05;11.52;;;;;;;10.54;74.17;98770.47;5091697;28;20036;-49
2023/04/19 01:40:41;;;;;;;12.85;9.52;;;;;;;10.47;73.92;98774.06;5074830;28;20486;-49
2023/04/19 01:43:07;;;;;;;17.35;9.90;;;;;;;10.38;74.14;98781.28;5092795;28;20032;-49
2023/04/19 01:45:35;;;;;;;19.33;11.77;;;;;;;10.28;74.42;98772.94;5092854;28;20028;-49
2023/04/19 01:48:03;;;;;;;21.65;10.68;;;;;;;10.16;74.63;98770.06;5091458;28;20028;-49
2023/04/19 01:50:29;;;;;;;35.08;11.45;;;;;;;10.08;75.19;98773.69;5091372;28;20027;-48
2023/04/19 01:52:55;;;;;;;35.53;11.30;;;;;;;10.10;75.56;98771.69;5091356;28;20020;-48
2023/04/19 01:55:21;;;;;;;23.88;11.23;;;;;;;10.11;75.34;98770.66;5092647;28;20427;-48
2023/04/19 01:57:46;;;;;;;22.80;12.85;;;;;;;10.18;75.42;98768.91;5090319;28;20028;-48
2023/04/19 02:00:13;;;;;;;14.90;9.60;;;;;;;10.18;74.93;98761.03;5092581;28;20102;-48
2023/04/19 02:02:40;;;;;;;22.70;13.00;;;;;;;10.07;74.62;98760.78;5092529;28;20032;-49
2023/04/19 02:05:06;;;;;;;19.50;10.50;;;;;;;9.95;75.00;98765.75;5092455;28;20545;-48
2023/04/19 02:07:32;;;;;;;12.93;9.90;;;;;;;9.84;75.39;98772.38;5091482;28;20389;-48
2023/04/19 02:10:00;;;;;;;18.92;10.25;;;;;;;9.73;75.76;98768.44;5092647;28;20024;-48
2023/04/19 02:12:30;;;;;;;19.73;11.55;;;;;;;9.67;75.76;98779.69;5091193;28;20054;-48
2023/04/19 02:15:00;;;;;;;22.83;10.20;;;;;;;9.59;76.28;98780.66;5091029;28;20413;-48
2023/04/19 02:17:26;;;;;;;20.10;10.10;;;;;;;9.53;76.77;98778.00;5091047;28;20085;-49
2023/04/19 02:19:52;;;;;;;14.57;10.50;;;;;;;9.52;76.85;98777.19;5090936;28;20462;-48
2023/04/19 02:22:18;;;;;;;13.35;8.68;;;;;;;9.54;77.13;98782.25;5090844;28;20060;-48
2023/04/19 02:24:44;;;;;;;18.90;14.25;;;;;;;9.68;76.98;98776.09;5092181;28;20436;-48
2023/04/19 02:27:10;;;;;;;14.73;11.27;;;;;;;9.74;76.69;98774.53;5092082;28;20027;-49
2023/04/19 02:29:37;;;;;;;15.18;10.57;;;;;;;9.85;76.66;98781.03;5090798;28;20023;-48
2023/04/19 02:32:04;;;;;;;13.57;10.57;;;;;;;9.96;76.81;98776.06;5090528;28;20464;-48
2023/04/19 02:34:34;;;;;;;11.43;9.68;;;;;;;9.92;75.72;98774.00;5092022;28;20085;-48
2023/04/19 02:37:00;;;;;;;13.57;9.75;;;;;;;9.82;75.57;98771.75;5092067;28;20028;-48
2023/04/19 02:39:26;;;;;;;10.57;9.57;;;;;;;9.67;75.46;98774.47;5107694;28;20038;-49
2023/04/19 02:41:51;;;;;;;16.73;11.88;;;;;;;9.41;75.83;98775.09;5090729;28;20036;-48
2023/04/19 02:44:17;;;;;;;18.98;15.65;;;;;;;9.20;76.31;98778.56;5091907;28;20065;-48
2023/04/19 02:46:49;;;;;;;13.50;12.13;;;;;;;9.18;77.47;98780.56;5090652;28;20085;-48
2023/04/19 02:49:16;;;;;;;14.88;9.85;;;;;;;9.25;77.49;98780.63;5091974;28;20085;-48
2023/04/19 02:51:41;;;;;;;16.92;12.30;;;;;;;9.25;77.24;98778.00;5091943;28;20066;-48
2023/04/19 02:54:07;;;;;;;16.05;11.60;;;;;;;9.19;77.48;98774.31;5090678;28;20024;-48
2023/04/19 02:56:33;;;;;;;15.32;13.65;;;;;;;9.29;77.40;98774.00;5090647;28;20473;-48
2023/04/19 02:59:02;;;;;;;12.73;9.80;;;;;;;9.31;76.55;98772.78;5091770;28;20038;-48
2023/04/19 03:01:27;;;;;;;12.02;9.13;;;;;;;9.18;76.59;98781.38;5107392;28;20028;-49
2023/04/19 03:03:53;;;;;;;14.60;11.70;;;;;;;9.10;76.97;98778.88;5090559;28;20032;-48
2023/04/19 03:06:19;;;;;;;13.30;9.85;;;;;;;9.03;77.37;98778.00;5090546;28;20553;-48
2023/04/19 03:08:45;;;;;;;16.25;12.95;;;;;;;8.93;77.43;98788.81;5107595;28;20405;-48
2023/04/19 03:11:12;;;;;;;12.95;11.15;;;;;;;8.91;77.83;98784.75;5094497;28;20040;-48
2023/04/19 03:13:39;;;;;;;11.95;10.70;;;;;;;8.89;77.67;98784.13;5095845;28;20031;-49
2023/04/19 03:16:05;;;;;;;15.82;11.50;;;;;;;8.93;77.89;98785.38;5094518;28;20040;-48
2023/04/19 03:18:31;;;;;;;18.88;10.95;;;;;;;8.94;77.66;98781.75;5095836;28;20504;-48
2023/04/19 03:20:57;;;;;;;12.13;9.60;;;;;;;8.94;77.52;98794.84;5095705;28;20024;-48
2023/04/19 03:23:22;;;;;;;15.65;10.00;;;;;;;8.93;77.62;98796.66;5095599;28;20047;-48
2023/04/19 03:25:49;;;;;;;22.75;10.20;;;;;;;9.00;77.44;98789.66;5096012;28;20378;-48
2023/04/19 03:28:14;;;;;;;20.77;12.98;;;;;;;9.03;77.37;98788.47;5095495;28;20036;-49
2023/04/19 03:30:40;;;;;;;13.35;8.98;;;;;;;9.11;76.80;98784.94;5094148;28;20039;-48
2023/04/19 03:33:05;;;;;;;17.70;10.82;;;;;;;9.08;76.78;98778.25;5095296;28;20071;-48
2023/04/19 03:35:31;;;;;;;15.70;10.07;;;;;;;9.09;76.06;98787.72;5095712;28;20035;-49
2023/04/19 03:37:57;;;;;;;19.77;14.05;;;;;;;8.99;76.23;98790.69;5094064;28;20068;-48
2023/04/19 03:40:23;;;;;;;17.85;14.02;;;;;;;8.92;76.70;98792.41;5094050;28;20032;-49
2023/04/19 03:42:48;;;;;;;18.23;12.52;;;;;;;8.87;76.67;98789.53;5110926;28;20035;-48
2023/04/19 03:45:14;;;;;;;18.02;9.85;;;;;;;8.87;76.95;98793.97;5093973;28;20059;-48
2023/04/19 03:47:40;;;;;;;11.75;9.27;;;;;;;8.90;76.56;98789.16;5093944;28;20028;-48
2023/04/19 03:50:06;;;;;;;14.80;9.35;;;;;;;8.84;76.58;98791.72;5095115;28;20075;-49
2023/04/19 03:52:32;;;;;;;13.68;9.02;;;;;;;8.83;76.50;98784.88;5110763;28;20111;-48
2023/04/19 03:54:58;;;;;;;14.13;9.18;;;;;;;8.80;76.49;98780.81;5093730;28;20420;-48
2023/04/19 03:57:24;;;;;;;29.45;10.13;;;;;;;8.75;76.76;98785.78;5094963;28;20032;-49
2023/04/19 03:59:49;;;;;;;14.30;9.10;;;;;;;8.87;77.04;98784.28;5094884;28;20024;-49
2023/04/19 04:02:15;;;;;;;13.75;10.20;;;;;;;9.10;76.73;98778.88;5110660;28;20502;-49
2023/04/19 04:04:40;;;;;;;13.30;10.75;;;;;;;9.14;76.01;98780.13;5094920;28;20481;-48
2023/04/19 04:07:06;;;;;;;11.65;9.02;;;;;;;9.16;75.32;98782.56;5094849;28;20024;-48
2023/04/19 04:09:32;;;;;;;24.10;9.93;;;;;;;9.03;75.28;98788.47;5094839;28;20023;-48
2023/04/19 04:11:57;;;;;;;16.67;11.25;;;;;;;8.99;76.02;98771.53;5110384;28;20024;-48
2023/04/19 04:14:23;;;;;;;19.30;13.35;;;;;;;8.92;75.91;98781.94;5094686;28;20074;-48
2023/04/19 04:16:49;;;;;;;41.90;16.50;;;;;;;8.88;75.80;98785.94;5093372;28;20024;-48
2023/04/19 04:19:15;;;;;;;18.63;16.60;;;;;;;8.82;75.35;98780.63;5093265;28;20115;-48
2023/04/19 04:21:40;;;;;;;17.95;14.40;;;;;;;8.60;75.67;98783.22;5092168;28;20039;-48
2023/04/19 04:24:06;;;;;;;16.05;11.75;;;;;;;8.50;76.28;98783.53;5094460;28;20034;-48
2023/04/19 04:26:34;;;;;;;19.15;14.65;;;;;;;8.57;76.72;98787.03;5093148;28;20040;-48
2023/04/19 04:29:02;;;;;;;14.73;12.43;;;;;;;8.58;76.22;98799.09;5093501;28;20439;-48
2023/04/19 04:31:28;;;;;;;16.33;11.27;;;;;;;8.57;76.26;98794.06;5092935;28;20068;-49
2023/04/19 04:33:54;;;;;;;15.05;10.85;;;;;;;8.46;76.68;98795.34;5094393;28;20052;-48
2023/04/19 04:36:20;;;;;;;11.52;8.85;;;;;;;8.39;77.29;98803.09;5093037;28;20402;-48
2023/04/19 04:38:46;;;;;;;16.20;12.65;;;;;;;8.47;77.10;98804.00;5094165;28;20108;-48
2023/04/19 04:41:12;;;;;;;15.77;12.20;;;;;;;8.53;76.93;98806.72;5094337;28;20028;-48
2023/04/19 04:43:38;;;;;;;15.40;9.85;;;;;;;8.46;77.24;98808.44;5094087;28;20028;-48
2023/04/19 04:46:04;;;;;;;11.77;9.93;;;;;;;8.42;76.96;98807.19;5109742;28;20077;-49
2023/04/19 04:48:30;;;;;;;14.10;9.38;;;;;;;8.33;76.86;98805.59;5109824;28;20122;-48
2023/04/19 04:50:56;;;;;;;14.70;9.00;;;;;;;8.29;77.10;98801.75;5075917;28;20039;-48
2023/04/19 04:53:24;;;;;;;14.30;9.48;;;;;;;8.31;77.49;98810.22;5094039;28;20034;-48
2023/04/19 04:55:51;;;;;;;10.73;8.45;;;;;;;8.47;77.62;98802.22;5093817;28;20425;-48
2023/04/19 04:58:17;;;;;;;19.75;12.80;;;;;;;8.63;77.60;98810.81;5092545;28;20038;-48
2023/04/19 05:00:42;;;;;;;15.52;9.65;;;;;;;8.75;75.95;98811.97;5093783;28;20024;-48
2023/04/19 05:03:08;;;;;;;15.77;9.95;;;;;;;8.70;76.09;98817.75;5109408;28;20028;-48
2023/04/19 05:05:34;;;;;;;15.68;10.50;;;;;;;8.80;75.86;98814.84;5092401;28;20671;-48
2023/04/19 05:08:00;;;;;;;18.52;13.07;;;;;;;8.87;75.40;98809.66;5092334;28;20127;-48
2023/04/19 05:10:25;;;;;;;13.35;9.65;;;;;;;9.21;74.83;98808.97;5093634;28;20047;-48
2023/04/19 05:12:51;;;;;;;18.25;9.52;;;;;;;9.83;73.13;98801.38;5093854;28;20432;-48
2023/04/19 05:15:17;;;;;;;28.45;14.93;;;;;;;10.42;70.67;98800.06;5109099;28;20040;-48
2023/04/19 05:17:43;;;;;;;24.08;9.82;;;;;;;10.94;68.82;98798.59;5093473;28;20031;-48
2023/04/19 05:20:09;;;;;;;14.60;9.40;;;;;;;11.64;66.24;98796.41;5109009;28;20081;-48
2023/04/19 05:22:34;;;;;;;11.05;8.82;;;;;;;12.18;64.55;98794.47;5093274;28;20107;-48
2023/04/19 05:25:01;;;;;;;14.77;9.70;;;;;;;12.68;61.86;98799.94;5093338;28;20145;-48
2023/04/19 05:27:26;;;;;;;18.60;10.25;;;;;;;13.07;60.71;98802.53;5093570;28;20020;-48
2023/04/19 05:29:52;;;;;;;16.05;10.88;;;;;;;13.35;59.11;98795.03;5091817;28;20051;-48
2023/04/19 05:32:18;;;;;;;17.23;11.35;;;;;;;13.65;58.39;98798.84;5091457;28;20104;-48
2023/04/19 05:34:44;;;;;;;10.98;9.20;;;;;;;13.91;57.36;98797.78;5091696;28;20028;-48
2023/04/19 05:37:09;;;;;;;14.27;10.02;;;;;;;14.18;56.57;98793.84;5108753;28;20252;-48
2023/04/19 05:39:35;;;;;;;14.18;9.40;;;;;;;14.29;56.16;98802.03;5091643;28;20069;-48
2023/04/19 05:42:01;;;;;;;14.23;9.55;;;;;;;14.48;55.47;98800.97;5108629;28;20034;-48
2023/04/19 05:44:26;;;;;;;14.80;8.95;;;;;;;14.74;54.81;98804.34;5092853;28;20051;-49
2023/04/19 05:46:52;;;;;;;14.68;9.77;;;;;;;14.97;54.28;98801.78;5108518;28;20448;-48
2023/04/19 05:49:18;;;;;;;17.00;10.00;;;;;;;14.86;54.15;98796.44;5092825;28;20032;-46
2023/04/19 05:51:43;;;;;;;12.77;10.27;;;;;;;14.50;55.01;98798.13;5092783;28;20108;-47
2023/04/19 05:54:11;;;;;;;19.63;11.27;;;;;;;14.44;55.77;98797.16;5091450;28;20473;-47
2023/04/19 05:56:37;;;;;;;15.38;9.82;;;;;;;14.80;54.33;98798.16;5092678;28;20473;-47
2023/04/19 05:59:03;;;;;;;20.17;9.82;;;;;;;15.12;53.23;98800.53;5092685;28;20028;-47
2023/04/19 06:01:29;;;;;;;13.23;9.70;;;;;;;15.43;51.79;98795.97;5108275;28;20137;-47
2023/04/19 06:03:55;;;;;;;10.77;8.43;;;;;;;15.70;50.54;98797.13;5092503;28;20418;-47
2023/04/19 06:06:22;;;;;;;16.83;11.68;;;;;;;16.24;49.66;98790.84;5092531;28;20059;-46
2023/04/19 06:08:48;;;;;;;16.77;9.55;;;;;;;16.93;48.70;98793.50;5091170;28;20024;-47
2023/04/19 06:11:14;;;;;;;11.93;8.27;;;;;;;17.66;46.44;98791.72;5092444;28;20121;-46
2023/04/19 06:13:39;;;;;;;10.02;8.35;;;;;;;18.53;44.98;98786.72;5108052;28;20028;-46
2023/04/19 06:16:06;;;;;;;11.25;8.63;;;;;;;19.08;42.79;98785.69;5091053;28;20032;-47
2023/04/19 06:18:32;;;;;;;12.95;9.50;;;;;;;18.82;42.53;98778.56;5092303;28;20105;-46
2023/04/19 06:20:58;;;;;;;13.85;9.90;;;;;;;18.72;42.75;98790.66;5107933;28;20414;-46
2023/04/19 06:23:24;;;;;;;12.05;9.27;;;;;;;18.83;43.00;98785.47;5092173;28;20020;-46
2023/04/19 06:25:50;;;;;;;17.65;8.75;;;;;;;18.87;42.73;98782.03;5092140;28;20099;-46
2023/04/19 06:28:15;;;;;;;9.63;8.63;;;;;;;19.14;42.42;98783.88;5107808;28;20044;-46
2023/04/19 06:30:41;;;;;;;10.10;9.10;;;;;;;19.11;42.03;98789.69;5107821;28;20035;-46
2023/04/19 06:33:07;;;;;;;11.65;9.15;;;;;;;18.95;42.34;98788.75;5107697;28;20436;-46
2023/04/19 06:35:32;;;;;;;17.77;8.63;;;;;;;19.43;42.71;98783.56;5092092;28;20056;-46
2023/04/19 06:37:58;;;;;;;22.10;9.77;;;;;;;20.11;40.95;98781.84;5092110;28;20082;-47
2023/04/19 06:40:25;;;;;;;12.38;11.00;;;;;;;20.58;40.33;98790.78;5107662;28;20047;-46
2023/04/19 06:42:52;;;;;;;11.63;10.25;;;;;;;21.03;39.09;98789.28;5091874;28;20039;-47
2023/04/19 06:45:17;;;;;;;14.52;10.07;;;;;;;21.61;38.88;98791.69;5090111;28;20062;-44
2023/04/19 06:47:43;;;;;;;17.02;9.60;;;;;;;22.38;38.02;98786.09;5091962;28;20446;-44
2023/04/19 06:50:10;;;;;;;21.05;9.93;;;;;;;23.38;36.87;98791.31;5091881;28;20035;-45
2023/04/19 06:52:35;;;;;;;11.85;9.45;;;;;;;23.99;35.65;98788.03;5091898;28;20603;-44
2023/04/19 06:55:01;;;;;;;26.98;9.85;;;;;;;24.03;35.70;98789.06;5107484;28;20028;-45
2023/04/19 06:57:27;;;;;;;24.90;9.98;;;;;;;24.15;34.40;98779.78;5091748;28;20100;-45
2023/04/19 06:59:54;;;;;;;16.83;10.05;;;;;;;24.51;34.66;98780.97;5092011;28;20036;-45
2023/04/19 07:02:20;;;;;;;16.38;9.10;;;;;;;24.83;33.95;98779.44;5091706;28;20164;-45
2023/04/19 07:04:46;;;;;;;17.10;9.13;;;;;;;25.06;33.70;98776.94;5091724;28;20611;-45
2023/04/19 07:07:12;;;;;;;11.77;7.95;;;;;;;25.50;32.59;98778.34;5107343;28;20040;-45
2023/04/19 07:09:38;;;;;;;25.85;9.55;;;;;;;26.30;31.45;98768.22;5091709;28;20527;-45
2023/04/19 07:12:05;;;;;;;18.23;8.88;;;;;;;27.48;29.54;98766.25;5107278;28;20024;-45
2023/04/19 07:14:30;;;;;;;14.15;8.18;;;;;;;27.83;28.37;98761.00;5090324;28;20024;-45
2023/04/19 07:16:56;;;;;;;26.38;8.98;;;;;;;27.62;28.62;98762.66;5090252;28;20507;-45
2023/04/19 07:19:22;;;;;;;14.98;7.88;;;;;;;28.11;28.54;98762.66;5090390;28;20089;-45
2023/04/19 07:21:48;;;;;;;33.78;9.18;;;;;;;29.01;27.73;98759.38;5091556;28;20031;-45
2023/04/19 07:24:13;;;;;;;21.27;8.70;;;;;;;29.99;26.53;98765.75;5090321;28;20107;-45
2023/04/19 07:26:39;;;;;;;20.33;7.68;;;;;;;30.60;25.93;98757.22;5091510;28;20034;-45
2023/04/19 07:29:05;;;;;;;26.52;8.60;;;;;;;31.24;25.16;98753.28;5107180;28;20078;-46
2023/04/19 07:31:30;;;;;;;30.85;8.85;;;;;;;31.77;24.03;98750.75;5106947;28;20055;-46
2023/04/19 07:33:56;;;;;;;10.65;7.32;;;;;;;32.14;23.32;98756.19;5107135;28;20027;-46
2023/04/19 07:36:22;;;;;;;29.33;8.00;;;;;;;32.42;23.33;98750.81;5091474;28;20028;-46
2023/04/19 07:38:47;;;;;;;17.42;7.75;;;;;;;32.50;23.02;98751.78;5091482;28;20435;-45
2023/04/19 07:41:13;;;;;;;18.13;7.68;;;;;;;32.23;23.30;98750.63;5107088;28;20502;-46
2023/04/19 07:43:39;;;;;;;21.42;7.53;;;;;;;32.34;23.07;98756.38;5091364;28;20032;-45
2023/04/19 07:46:13;;;;;;;25.00;10.77;;;;;;;32.90;22.72;98761.03;5090005;28;20036;-46
2023/04/19 07:48:39;;;;;;;57.40;13.27;;;;;;;33.13;22.15;98758.59;5091352;28;20031;-46
2023/04/19 07:51:18;;;;;;;28.58;10.25;;;;;;;33.24;21.84;98765.06;5089983;28;20063;-45
2023/04/19 07:53:45;;;;;;;51.63;12.65;;;;;;;33.08;22.04;98759.59;5091602;28;20046;-46
2023/04/19 07:56:11;;;;;;;50.22;14.63;;;;;;;33.26;21.70;98756.56;5092213;28;20038;-46
2023/04/19 07:58:38;;;;;;;18.02;8.15;;;;;;;33.52;20.95;98765.00;5094964;28;20405;-46
2023/04/19 08:01:04;;;;;;;13.32;7.15;;;;;;;33.57;21.36;98763.97;5094772;28;20028;-46
2023/04/19 08:03:33;;;;;;;8.00;7.18;;;;;;;33.94;21.21;98759.00;5110773;28;20035;-46
2023/04/19 08:06:04;;;;;;;46.38;14.45;;;;;;;34.16;21.02;98757.59;5110456;28;20031;-45
2023/04/19 08:08:30;;;;;;;41.83;10.02;;;;;;;33.97;20.77;98765.72;5094821;28;20063;-46
2023/04/19 08:10:56;;;;;;;44.45;11.25;;;;;;;34.01;20.96;98752.97;5093492;28;20058;-45
2023/04/19 08:13:22;;;;;;;38.35;9.00;;;;;;;33.99;20.83;98753.31;5093356;28;20450;-45
2023/04/19 08:15:48;;;;;;;23.02;8.55;;;;;;;34.05;20.82;98753.81;5094652;28;20516;-45
2023/04/19 08:18:13;;;;;;;33.75;8.38;;;;;;;34.20;20.78;98747.56;5110297;28;20114;-45
2023/04/19 08:20:41;;;;;;;34.05;7.45;;;;;;;34.28;20.56;98745.00;5094461;28;20119;-46
2023/04/19 08:23:07;;;;;;;22.98;8.05;;;;;;;34.35;20.19;98745.13;5094692;28;20418;-46
2023/04/19 08:25:33;;;;;;;15.98;7.15;;;;;;;34.07;21.12;98745.28;5094659;28;20389;-45
2023/04/19 08:27:59;;;;;;;20.55;7.25;;;;;;;34.04;20.84;98744.06;5094452;28;20103;-46
2023/04/19 08:30:25;;;;;;;31.55;7.88;;;;;;;33.97;20.96;98739.25;5109977;28;20135;-45
2023/04/19 08:32:51;;;;;;;45.83;8.77;;;;;;;34.03;20.93;98740.56;5109818;28;20493;-45
2023/04/19 08:35:16;;;;;;;25.92;7.55;;;;;;;33.95;20.60;98736.09;5094258;28;20107;-46
2023/04/19 08:37:42;;;;;;;27.20;7.45;;;;;;;33.53;21.18;98742.09;5109869;28;20032;-46
2023/04/19 08:40:10;;;;;;;16.13;7.82;;;;;;;33.31;21.87;98743.50;5109859;28;20039;-46
2023/04/19 08:42:36;;;;;;;17.55;7.30;;;;;;;32.97;21.84;98734.06;5109673;28;20084;-46
2023/04/19 08:45:05;;;;;;;14.63;7.50;;;;;;;32.90;22.57;98725.69;5109727;28;20024;-46
2023/04/19 08:47:34;;;;;;;13.13;7.30;;;;;;;33.03;22.01;98741.59;5094315;28;20394;-46
2023/04/19 08:50:04;;;;;;;21.25;8.02;;;;;;;33.20;22.07;98729.66;5094030;28;20032;-46
2023/04/19 08:52:33;;;;;;;17.45;6.95;;;;;;;32.98;22.15;98724.75;5093900;28;20055;-46
2023/04/19 08:55:07;;;;;;;16.00;7.07;;;;;;;32.92;22.05;98720.72;5092586;28;20036;-46
2023/04/19 08:57:34;;;;;;;11.18;6.97;;;;;;;32.52;22.79;98729.69;5093792;28;20028;-46
2023/04/19 09:00:01;;;;;;;15.18;7.47;;;;;;;32.28;22.96;98723.22;5093731;28;20040;-45
2023/04/19 09:02:27;;;;;;;12.68;6.38;;;;;;;32.41;22.47;98715.81;5109264;28;20032;-46
2023/04/19 09:05:42;;;;;;;18.77;7.50;;;;;;;32.79;22.44;98715.34;5093722;28;20031;-46
2023/04/19 09:08:26;;;;;;;11.15;6.72;;;;;;;33.12;21.98;98718.91;5108764;28;20455;-46
2023/04/19 09:10:59;;;;;;;;;;;;;;;33.46;22.28;98722.88;5092752;28;20105;-46
2023/04/19 09:13:26;;;;;;;10.57;6.55;;;;;;;32.94;21.74;98705.66;5092206;28;19957;-46
2023/04/19 09:15:52;;;;;;;10.63;6.13;;;;;;;33.30;21.52;98712.00;5092152;28;20031;-45
2023/04/19 09:18:19;;;;;;;15.77;6.60;;;;;;;34.30;19.99;98708.06;5093366;28;20042;-46
2023/04/19 09:20:45;;;;;;;13.10;6.07;;;;;;;34.79;19.11;98706.69;5093320;28;20059;-46
2023/04/19 09:23:16;;;;;;;7.88;5.60;;;;;;;34.51;19.04;98701.44;5108888;28;20089;-46
2023/04/19 09:26:03;;;;;;;22.52;6.63;;;;;;;34.48;19.28;98708.41;5108917;28;20043;-46
2023/04/19 09:28:29;;;;;;;37.60;8.35;;;;;;;34.46;19.80;98699.03;5093200;28;20020;-46
2023/04/19 09:30:55;;;;;;;38.05;8.10;;;;;;;34.00;19.43;98694.16;5091893;28;20028;-46
2023/04/19 09:33:32;;;;;;;14.10;5.88;;;;;;;32.89;20.48;98696.94;5092934;28;20094;-46
2023/04/19 09:35:59;;;;;;;15.40;6.43;;;;;;;33.27;20.55;98690.94;5091758;28;20039;-46
2023/04/19 09:38:25;;;;;;;10.10;6.07;;;;;;;34.00;20.03;98694.94;5093063;28;20050;-46
2023/04/19 09:40:50;;;;;;;10.60;5.70;;;;;;;34.29;19.49;98690.16;5092899;28;20493;-46
2023/04/19 09:43:25;;;;;;;6.03;5.38;;;;;;;34.60;19.69;98677.50;5092840;28;20039;-46
2023/04/19 09:45:51;;;;;;;13.57;6.03;;;;;;;34.93;19.11;98690.59;5092918;28;20028;-46
2023/04/19 09:48:17;;;;;;;11.55;5.93;;;;;;;34.96;19.13;98683.63;5092905;28;20035;-46
2023/04/19 09:50:54;;;;;;;15.10;5.65;;;;;;;35.04;19.04;98682.59;5091574;28;20024;-45
2023/04/19 09:53:22;;;;;;;14.00;6.68;;;;;;;35.29;18.80;98674.03;5108510;28;20440;-46
2023/04/19 09:55:48;;;;;;;7.40;4.90;;;;;;;35.57;18.84;98676.41;5091403;28;20028;-46
2023/04/19 09:58:17;;;;;;;6.75;5.20;;;;;;;36.21;18.00;98673.81;5108348;28;20408;-45
2023/04/19 10:00:46;;;;;;;12.60;5.30;;;;;;;35.83;17.75;98667.44;5092538;28;20062;-46
2023/04/19 10:03:13;;;;;;;11.75;5.22;;;;;;;35.27;18.07;98668.16;5092712;28;20395;-46
2023/04/19 10:05:41;;;;;;;14.52;5.05;;;;;;;35.15;18.16;98661.72;5092497;28;20413;-45
2023/04/19 10:08:07;;;;;;;11.63;5.40;;;;;;;35.39;17.81;98671.47;5092406;28;20020;-46
2023/04/19 10:10:34;;;;;;;11.73;5.68;;;;;;;35.33;17.93;98666.69;5092430;28;20028;-46
2023/04/19 10:13:03;;;;;;;10.15;4.90;;;;;;;34.87;18.08;98663.97;5092324;28;20020;-45
2023/04/19 10:15:30;;;;;;;10.18;5.72;;;;;;;34.74;18.35;98664.16;5107988;28;20028;-45
2023/04/19 10:17:56;;;;;;;12.48;5.65;;;;;;;34.69;18.79;98659.00;5092201;28;20103;-45
2023/04/19 10:20:29;;;;;;;9.18;5.68;;;;;;;34.98;18.31;98651.31;5107308;28;20115;-45
2023/04/19 10:22:55;;;;;;;5.97;4.28;;;;;;;34.94;18.18;98656.69;5092231;28;20039;-45
2023/04/19 10:25:28;;;;;;;7.93;4.70;;;;;;;34.91;17.99;98648.44;5092249;28;20034;-46
2023/04/19 10:27:54;;;;;;;8.70;6.07;;;;;;;34.75;18.41;98651.28;5092270;28;20035;-45
2023/04/19 10:30:21;;;;;;;11.35;5.13;;;;;;;34.26;19.03;98649.97;5107752;28;20032;-45
2023/04/19 10:33:01;;;;;;;9.77;5.43;;;;;;;34.03;19.15;98652.63;5090706;28;20078;-46
2023/04/19 10:35:34;;;;;;;9.52;5.15;;;;;;;33.77;19.83;98647.78;5092120;28;20020;-46
2023/04/19 10:38:07;;;;;;;8.02;5.20;;;;;;;34.02;19.49;98649.09;5092024;28;20028;-45
2023/04/19 10:40:59;;;;;;;10.75;5.18;;;;;;;34.00;19.46;98654.09;5107648;28;20032;-46
2023/04/19 10:43:27;;;;;;;7.85;5.00;;;;;;;33.93;19.50;98645.03;5105612;28;20127;-46
2023/04/19 10:45:54;;;;;;;5.60;4.47;;;;;;;34.08;19.33;98646.09;5091904;28;20052;-45
2023/04/19 10:48:29;;;;;;;39.88;6.97;;;;;;;34.40;19.42;98641.28;5091930;28;20032;-46
2023/04/19 10:51:13;;;;;;;27.77;6.35;;;;;;;34.76;19.10;98642.75;5091749;28;20040;-45
2023/04/19 10:54:00;;;;;;;73.72;8.02;;;;;;;34.91;18.71;98637.53;5091910;28;20016;-46
2023/04/19 10:56:34;;;;;;;39.83;6.25;;;;;;;34.87;18.76;98629.28;5091872;28;20032;-46
2023/04/19 10:59:00;;;;;;;20.17;5.38;;;;;;;34.50;18.68;98629.03;5091861;28;20063;-45
2023/04/19 11:01:45;;;;;;;12.45;5.55;;;;;;;33.95;19.10;98624.44;5091753;28;20024;-46
2023/04/19 11:04:13;;;;;;;20.83;5.32;;;;;;;33.80;19.19;98620.63;5090532;28;20027;-46
2023/04/19 11:06:53;;;;;;;25.17;5.60;;;;;;;34.03;19.44;98623.44;5091707;28;20032;-46
2023/04/19 11:09:28;;;;;;;11.73;5.30;;;;;;;34.53;19.08;98612.75;5091753;28;20078;-46
2023/04/19 11:11:57;;;;;;;16.40;5.18;;;;;;;34.60;18.90;98606.63;5107313;28;20028;-46
2023/04/19 11:14:24;;;;;;;17.00;5.53;;;;;;;34.93;18.63;98599.78;5091723;28;20031;-46
2023/04/19 11:16:50;;;;;;;10.20;5.00;;;;;;;34.64;18.94;98603.97;5090326;28;20027;-46
2023/04/19 11:19:16;;;;;;;12.88;6.38;;;;;;;34.56;19.68;98600.31;5091636;28;20024;-46
2023/04/19 11:21:44;;;;;;;8.15;5.78;;;;;;;34.69;19.32;98592.78;5091611;28;20052;-46
2023/04/19 11:24:11;;;;;;;14.35;5.18;;;;;;;34.37;19.26;98588.31;5091534;28;20028;-46
2023/04/19 11:26:37;;;;;;;15.80;4.97;;;;;;;34.11;19.09;98580.81;5091500;28;20495;-46